createdAt,value
2023-12-12T00:02:05.591Z,7.00
2023-12-12T00:04:32.737Z,7.00
2023-12-12T00:06:59.822Z,7.10
2023-12-12T00:09:26.876Z,7.20
2023-12-12T00:11:55.592Z,7.30
2023-12-12T00:14:22.708Z,7.40
2023-12-12T00:16:49.761Z,7.60
2023-12-12T00:19:17.006Z,7.70
2023-12-12T00:21:44.228Z,7.70
2023-12-12T00:24:11.289Z,7.70
2023-12-12T00:26:38.331Z,7.60
2023-12-12T00:29:05.474Z,7.50
2023-12-12T00:31:32.636Z,7.50
2023-12-12T00:33:59.833Z,7.50
2023-12-12T00:36:26.918Z,7.50
2023-12-12T00:38:54.104Z,7.60
2023-12-12T00:41:21.159Z,7.60
2023-12-12T00:43:48.317Z,7.60
2023-12-12T00:46:15.342Z,7.60
2023-12-12T00:48:42.593Z,7.60
2023-12-12T00:51:10.214Z,7.60
2023-12-12T00:53:37.293Z,7.60
2023-12-12T00:56:05.305Z,7.60
2023-12-12T00:58:32.530Z,7.70
2023-12-12T01:00:59.724Z,7.80
2023-12-12T01:03:27.035Z,7.80
2023-12-12T01:05:54.179Z,7.90
2023-12-12T01:08:21.244Z,7.90
2023-12-12T01:10:48.344Z,7.90
2023-12-12T01:13:15.464Z,7.80
2023-12-12T01:15:42.562Z,7.90
2023-12-12T01:18:09.873Z,7.80
2023-12-12T01:20:37.116Z,7.80
2023-12-12T01:23:04.575Z,7.80
2023-12-12T01:25:32.501Z,7.80
2023-12-12T01:28:00.279Z,7.80
2023-12-12T01:30:27.592Z,7.70
2023-12-12T01:32:54.658Z,7.70
2023-12-12T01:35:21.806Z,7.70
2023-12-12T01:37:48.857Z,7.70
2023-12-12T01:40:16.042Z,7.70
2023-12-12T01:42:43.204Z,7.70
2023-12-12T01:45:10.591Z,7.60
2023-12-12T01:47:38.255Z,7.60
2023-12-12T01:50:06.782Z,7.50
2023-12-12T01:52:35.617Z,7.50
2023-12-12T01:55:03.016Z,7.40
2023-12-12T01:57:30.551Z,7.40
2023-12-12T01:59:57.889Z,7.40
2023-12-12T02:02:25.330Z,7.30
2023-12-12T02:04:52.534Z,7.30
2023-12-12T02:07:21.803Z,7.30
2023-12-12T02:09:50.070Z,7.30
2023-12-12T02:12:17.226Z,7.30
2023-12-12T02:14:44.537Z,7.30
2023-12-12T02:17:11.686Z,7.20
2023-12-12T02:19:40.074Z,7.20
2023-12-12T02:22:07.244Z,7.20
2023-12-12T02:24:34.342Z,7.10
2023-12-12T02:27:01.744Z,7.10
2023-12-12T02:29:28.908Z,7.10
2023-12-12T02:31:55.989Z,7.10
2023-12-12T02:34:24.082Z,7.00
2023-12-12T02:36:51.167Z,6.90
2023-12-12T02:39:18.502Z,6.80
2023-12-12T02:41:45.509Z,6.70
2023-12-12T02:44:12.585Z,6.60
2023-12-12T02:46:40.950Z,6.50
2023-12-12T02:49:08.284Z,6.40
2023-12-12T02:51:35.529Z,6.40
2023-12-12T02:54:02.909Z,6.40
2023-12-12T02:56:35.877Z,6.30
2023-12-12T02:59:02.924Z,6.30
2023-12-12T03:01:30.103Z,6.40
2023-12-12T03:03:57.424Z,6.40
2023-12-12T03:06:24.484Z,6.50
2023-12-12T03:08:51.726Z,6.60
2023-12-12T03:11:18.827Z,6.60
2023-12-12T03:13:48.688Z,6.60
2023-12-12T03:16:15.790Z,6.70
2023-12-12T03:18:42.991Z,6.70
2023-12-12T03:21:10.074Z,6.70
2023-12-12T03:23:37.156Z,6.70
2023-12-12T03:26:09.691Z,6.70
2023-12-12T03:28:37.378Z,6.70
2023-12-12T03:31:08.202Z,6.80
2023-12-12T03:33:35.792Z,6.80
2023-12-12T03:36:08.706Z,6.70
2023-12-12T03:38:35.735Z,6.70
2023-12-12T03:41:02.942Z,6.70
2023-12-12T03:43:30.086Z,6.70
2023-12-12T03:45:57.206Z,6.60
2023-12-12T03:48:24.396Z,6.60
2023-12-12T03:50:51.692Z,6.50
2023-12-12T03:53:18.729Z,6.50
2023-12-12T03:55:45.776Z,6.40
2023-12-12T03:58:12.942Z,6.30
2023-12-12T04:00:40.034Z,6.30
2023-12-12T04:03:07.150Z,6.20
2023-12-12T04:05:34.214Z,6.20
2023-12-12T04:08:01.303Z,6.20
2023-12-12T04:10:28.375Z,6.10
2023-12-12T04:12:55.596Z,6.10
2023-12-12T04:15:22.641Z,6.10
2023-12-12T04:20:16.796Z,6.10
2023-12-12T04:22:43.878Z,6.10
2023-12-12T04:25:13.028Z,6.10
2023-12-12T04:27:40.205Z,6.10
2023-12-12T04:30:08.097Z,6.10
2023-12-12T04:32:35.289Z,6.20
2023-12-12T04:35:02.637Z,6.30
2023-12-12T04:37:30.004Z,6.30
2023-12-12T04:39:57.323Z,6.40
2023-12-12T04:42:24.452Z,6.40
2023-12-12T04:44:52.118Z,6.40
2023-12-12T04:47:19.244Z,6.50
2023-12-12T04:49:46.505Z,6.50
2023-12-12T04:52:13.589Z,6.40
2023-12-12T04:54:40.739Z,6.40
2023-12-12T04:57:07.787Z,6.40
2023-12-12T04:59:37.460Z,6.30
2023-12-12T05:02:05.979Z,6.30
2023-12-12T05:04:33.188Z,6.30
2023-12-12T05:07:00.390Z,6.20
2023-12-12T05:09:27.512Z,6.20
2023-12-12T05:11:54.560Z,6.30
2023-12-12T05:14:21.615Z,6.30
2023-12-12T05:16:57.940Z,6.30
2023-12-12T05:19:31.805Z,6.30
2023-12-12T05:21:58.907Z,6.30
2023-12-12T05:24:25.971Z,6.40
2023-12-12T05:26:52.985Z,6.40
2023-12-12T05:29:20.257Z,6.40
2023-12-12T05:31:47.393Z,6.50
2023-12-12T05:34:14.545Z,6.60
2023-12-12T05:36:41.692Z,6.70
2023-12-12T05:39:11.213Z,6.80
2023-12-12T05:41:38.591Z,6.80
2023-12-12T05:44:06.962Z,6.90
2023-12-12T05:46:34.733Z,6.90
2023-12-12T05:49:01.901Z,7.00
2023-12-12T05:51:29.134Z,7.00
2023-12-12T05:53:56.212Z,7.00
2023-12-12T05:56:23.317Z,7.00
2023-12-12T05:58:51.038Z,7.00
2023-12-12T06:01:18.883Z,7.00
2023-12-12T06:03:46.463Z,7.10
2023-12-12T06:06:14.138Z,7.00
2023-12-12T06:08:41.433Z,7.00
2023-12-12T06:11:08.553Z,6.90
2023-12-12T06:13:37.013Z,6.80
2023-12-12T06:16:04.472Z,6.80
2023-12-12T06:18:31.672Z,6.70
2023-12-12T06:20:58.782Z,6.60
2023-12-12T06:23:25.838Z,6.50
2023-12-12T06:25:53.209Z,6.40
2023-12-12T06:28:20.313Z,6.40
2023-12-12T06:30:47.880Z,6.40
2023-12-12T06:33:15.132Z,6.30
2023-12-12T06:35:42.425Z,6.30
2023-12-12T06:38:09.517Z,6.20
2023-12-12T06:40:36.588Z,6.20
2023-12-12T06:43:03.700Z,6.10
2023-12-12T06:45:30.735Z,6.10
2023-12-12T06:47:58.007Z,6.00
2023-12-12T06:50:25.083Z,6.00
2023-12-12T06:52:52.412Z,5.90
2023-12-12T06:55:19.776Z,5.80
2023-12-12T06:57:46.983Z,5.80
2023-12-12T07:00:15.505Z,5.80
2023-12-12T07:02:42.680Z,5.70
2023-12-12T07:05:09.923Z,5.70
2023-12-12T07:07:37.082Z,5.60
2023-12-12T07:10:07.631Z,5.60
2023-12-12T07:15:20.528Z,5.60
2023-12-12T07:17:47.793Z,5.60
2023-12-12T07:20:15.048Z,5.60
2023-12-12T07:22:42.325Z,5.60
2023-12-12T07:25:09.817Z,5.60
2023-12-12T07:27:36.985Z,5.60
2023-12-12T07:30:05.056Z,5.70
2023-12-12T07:32:32.516Z,5.70
2023-12-12T07:34:59.660Z,5.70
2023-12-12T07:37:26.885Z,5.70
2023-12-12T07:39:54.256Z,5.80
2023-12-12T07:42:21.448Z,5.80
2023-12-12T07:44:48.531Z,5.80
2023-12-12T07:47:15.671Z,5.80
2023-12-12T07:49:42.975Z,5.90
2023-12-12T07:52:10.146Z,5.90
2023-12-12T07:54:39.181Z,5.90
2023-12-12T07:57:06.718Z,5.90
2023-12-12T07:59:33.934Z,5.90
2023-12-12T08:02:01.244Z,5.90
2023-12-12T08:04:29.415Z,6.00
2023-12-12T08:06:56.654Z,6.00
2023-12-12T08:09:24.567Z,6.00
2023-12-12T08:11:52.721Z,6.00
2023-12-12T08:14:19.776Z,6.10
2023-12-12T08:16:46.942Z,6.10
2023-12-12T08:19:14.708Z,6.10
2023-12-12T08:21:42.448Z,6.20
2023-12-12T08:24:09.695Z,6.20
2023-12-12T08:26:44.451Z,6.20
2023-12-12T08:29:12.076Z,6.20
2023-12-12T08:31:39.255Z,6.30
2023-12-12T08:34:06.920Z,6.30
2023-12-12T08:36:34.671Z,6.40
2023-12-12T08:39:02.340Z,6.40
2023-12-12T08:41:32.100Z,6.40
2023-12-12T08:44:00.378Z,6.50
2023-12-12T08:46:28.510Z,6.50
2023-12-12T08:48:59.543Z,6.50
2023-12-12T08:51:27.977Z,6.60
2023-12-12T08:53:55.219Z,6.60
2023-12-12T08:56:22.376Z,6.60
2023-12-12T08:58:51.555Z,6.70
2023-12-12T09:01:19.276Z,6.70
2023-12-12T09:03:46.993Z,6.70
2023-12-12T09:06:14.182Z,6.80
2023-12-12T09:08:43.356Z,6.80
2023-12-12T09:11:15.154Z,7.00
2023-12-12T09:13:46.161Z,7.00
2023-12-12T09:16:13.332Z,7.10
2023-12-12T09:18:40.546Z,7.20
2023-12-12T09:21:08.232Z,7.40
2023-12-12T09:23:39.457Z,7.50
2023-12-12T09:26:06.582Z,7.60
2023-12-12T09:28:33.754Z,7.70
2023-12-12T09:31:00.921Z,7.70
2023-12-12T09:33:28.166Z,7.90
2023-12-12T09:35:55.455Z,7.90
2023-12-12T09:38:22.614Z,8.00
2023-12-12T09:40:50.081Z,8.10
2023-12-12T09:43:18.883Z,8.10
2023-12-12T09:45:49.059Z,8.30
2023-12-12T09:48:16.694Z,8.40
2023-12-12T09:50:48.401Z,8.40
2023-12-12T09:53:15.608Z,8.50
2023-12-12T09:55:42.941Z,8.60
2023-12-12T09:58:10.225Z,8.70
2023-12-12T10:00:37.491Z,8.80
2023-12-12T10:03:08.409Z,9.00
2023-12-12T10:05:39.329Z,9.10
2023-12-12T10:08:14.090Z,9.20
2023-12-12T10:10:45.099Z,9.30
2023-12-12T10:13:12.605Z,9.50
2023-12-12T10:15:39.758Z,9.60
2023-12-12T10:18:07.130Z,9.80
2023-12-12T10:20:36.535Z,10.00
2023-12-12T10:23:06.581Z,10.20
2023-12-12T10:25:35.841Z,10.30
2023-12-12T10:28:03.568Z,10.30
2023-12-12T10:30:31.001Z,10.40
2023-12-12T10:32:58.206Z,10.50
2023-12-12T10:35:26.764Z,10.60
2023-12-12T10:37:54.518Z,10.50
2023-12-12T10:40:24.278Z,10.30
2023-12-12T10:42:52.830Z,10.60
2023-12-12T10:45:22.024Z,10.40
2023-12-12T10:47:52.822Z,11.10
2023-12-12T10:50:21.071Z,10.80
2023-12-12T10:52:51.003Z,10.60
2023-12-12T10:55:20.569Z,10.60
2023-12-12T10:57:49.028Z,10.60
2023-12-12T11:00:19.997Z,10.60
2023-12-12T11:02:49.293Z,10.60
2023-12-12T11:05:18.155Z,10.70
2023-12-12T11:07:50.007Z,10.70
2023-12-12T11:10:21.369Z,10.80
2023-12-12T11:13:01.778Z,10.80
2023-12-12T11:15:30.906Z,10.90
2023-12-12T11:17:58.659Z,11.00
2023-12-12T11:20:26.409Z,11.00
2023-12-12T11:22:54.487Z,11.20
2023-12-12T11:25:23.716Z,11.20
2023-12-12T11:27:58.523Z,11.30
2023-12-12T11:33:19.935Z,11.60
2023-12-12T11:38:34.215Z,12.10
2023-12-12T11:41:30.280Z,12.40
2023-12-12T11:43:57.442Z,12.60
2023-12-12T11:46:26.013Z,12.70
2023-12-12T11:48:54.388Z,12.80
2023-12-12T11:51:36.511Z,12.80
2023-12-12T11:54:10.673Z,13.00
2023-12-12T11:59:06.757Z,13.30
2023-12-12T12:01:33.999Z,13.40
2023-12-12T12:04:01.607Z,13.50
2023-12-12T12:06:28.679Z,13.60
2023-12-12T12:08:55.888Z,13.70
2023-12-12T12:11:22.987Z,13.60
2023-12-12T12:13:50.074Z,13.60
2023-12-12T12:16:18.397Z,13.60
2023-12-12T12:18:45.655Z,13.50
2023-12-12T12:21:12.906Z,13.40
2023-12-12T12:23:40.925Z,13.40
2023-12-12T12:26:08.456Z,13.50
2023-12-12T12:28:37.011Z,13.40
2023-12-12T12:31:06.853Z,13.30
2023-12-12T12:33:36.622Z,13.20
2023-12-12T12:36:04.922Z,13.30
2023-12-12T12:38:33.735Z,13.40
2023-12-12T12:41:01.015Z,13.30
2023-12-12T12:43:28.388Z,13.00
2023-12-12T12:45:57.407Z,12.80
2023-12-12T12:48:28.649Z,12.60
2023-12-12T12:50:57.438Z,12.30
2023-12-12T12:53:24.511Z,12.10
2023-12-12T12:55:51.776Z,12.00
2023-12-12T12:58:18.917Z,11.90
2023-12-12T13:00:47.310Z,11.80
2023-12-12T13:03:15.401Z,11.80
2023-12-12T13:05:42.850Z,11.70
2023-12-12T13:08:10.312Z,11.70
2023-12-12T13:10:46.829Z,11.70
2023-12-12T13:13:20.219Z,11.50
2023-12-12T13:15:47.805Z,11.40
2023-12-12T13:18:15.622Z,11.30
2023-12-12T13:20:46.726Z,11.20
2023-12-12T13:23:14.105Z,11.10
2023-12-12T13:25:42.343Z,11.00
2023-12-12T13:28:09.614Z,11.00
2023-12-12T13:30:37.680Z,10.90
2023-12-12T13:33:07.612Z,10.80
2023-12-12T13:35:37.450Z,10.80
2023-12-12T13:38:05.579Z,10.70
2023-12-12T13:40:33.362Z,10.70
2023-12-12T13:43:00.965Z,10.60
2023-12-12T13:45:28.184Z,10.60
2023-12-12T13:47:55.813Z,10.50
2023-12-12T13:50:23.506Z,10.40
2023-12-12T13:52:54.005Z,10.30
2023-12-12T13:55:21.381Z,10.30
2023-12-12T13:57:48.512Z,10.30
2023-12-12T14:00:18.638Z,10.20
2023-12-12T14:02:46.762Z,10.10
2023-12-12T14:05:14.359Z,10.10
2023-12-12T14:07:42.202Z,10.00
2023-12-12T14:10:09.785Z,9.90
2023-12-12T14:12:37.434Z,9.80
2023-12-12T14:15:05.556Z,9.80
2023-12-12T14:17:33.001Z,9.70
2023-12-12T14:20:01.401Z,9.70
2023-12-12T14:22:32.653Z,9.60
2023-12-12T14:27:28.339Z,9.50
2023-12-12T14:29:55.428Z,9.50
2023-12-12T14:32:22.548Z,9.40
2023-12-12T14:34:49.740Z,9.30
2023-12-12T14:37:16.950Z,9.30
2023-12-12T14:39:44.067Z,9.20
2023-12-12T14:42:11.116Z,9.10
2023-12-12T14:44:39.373Z,9.00
2023-12-12T14:47:06.607Z,9.00
2023-12-12T14:49:33.798Z,8.90
2023-12-12T14:52:01.173Z,8.90
2023-12-12T14:54:29.107Z,8.80
2023-12-12T14:57:02.928Z,8.70
2023-12-12T14:59:38.770Z,8.70
2023-12-12T15:02:06.043Z,8.70
2023-12-12T15:04:34.176Z,8.60
2023-12-12T15:07:01.353Z,8.60
2023-12-12T15:09:29.199Z,8.50
2023-12-12T15:11:56.315Z,8.50
2023-12-12T15:14:24.168Z,8.50
2023-12-12T15:16:51.281Z,8.40
2023-12-12T15:19:18.617Z,8.40
2023-12-12T15:21:49.580Z,8.30
2023-12-12T15:24:16.757Z,8.30
2023-12-12T15:26:45.191Z,8.20
2023-12-12T15:29:12.518Z,8.20
2023-12-12T15:31:39.767Z,8.20
2023-12-12T15:34:08.627Z,8.10
2023-12-12T15:36:35.848Z,8.10
2023-12-12T15:39:03.170Z,8.10
2023-12-12T15:41:31.382Z,8.00
2023-12-12T15:43:58.731Z,7.90
2023-12-12T15:46:25.841Z,7.90
2023-12-12T15:48:52.935Z,7.90
2023-12-12T15:51:20.454Z,7.80
2023-12-12T15:53:47.696Z,7.80
2023-12-12T15:56:14.750Z,7.80
2023-12-12T15:58:41.863Z,7.70
2023-12-12T16:01:12.183Z,7.70
2023-12-12T16:03:39.577Z,7.70
2023-12-12T16:06:07.815Z,7.60
2023-12-12T16:08:35.511Z,7.50
2023-12-12T16:11:03.142Z,7.50
2023-12-12T16:13:35.890Z,7.50
2023-12-12T16:16:04.641Z,7.40
2023-12-12T16:18:31.724Z,7.40
2023-12-12T16:20:58.752Z,7.40
2023-12-12T16:25:53.652Z,7.30
2023-12-12T16:28:20.855Z,7.20
2023-12-12T16:30:47.981Z,7.20
2023-12-12T16:33:15.186Z,7.10
2023-12-12T16:35:42.315Z,7.10
2023-12-12T16:38:19.649Z,7.10
2023-12-12T16:40:47.438Z,7.10
2023-12-12T16:43:15.344Z,7.10
2023-12-12T16:45:43.643Z,7.10
2023-12-12T16:48:11.458Z,7.00
2023-12-12T16:50:39.577Z,7.00
2023-12-12T16:53:10.225Z,7.00
2023-12-12T16:55:37.876Z,7.00
2023-12-12T16:58:05.796Z,7.00
2023-12-12T17:00:33.271Z,6.90
2023-12-12T17:03:00.418Z,6.90
2023-12-12T17:05:27.551Z,6.90
2023-12-12T17:07:54.699Z,6.80
2023-12-12T17:10:22.096Z,6.80
2023-12-12T17:12:51.051Z,6.80
2023-12-12T17:15:18.501Z,6.80
2023-12-12T17:17:45.625Z,6.70
2023-12-12T17:20:13.001Z,6.70
2023-12-12T17:22:40.291Z,6.70
2023-12-12T17:25:08.375Z,6.70
2023-12-12T17:27:36.139Z,6.70
2023-12-12T17:30:06.082Z,6.60
2023-12-12T17:32:33.420Z,6.60
2023-12-12T17:35:01.213Z,6.70
2023-12-12T17:37:29.435Z,6.60
2023-12-12T17:39:56.605Z,6.60
2023-12-12T17:42:25.901Z,6.60
2023-12-12T17:44:53.666Z,6.50
2023-12-12T17:47:20.792Z,6.50
2023-12-12T17:49:47.989Z,6.50
2023-12-12T17:52:16.121Z,6.50
2023-12-12T17:54:43.504Z,6.40
2023-12-12T17:57:10.606Z,6.50
2023-12-12T17:59:37.760Z,6.50
2023-12-12T18:02:05.347Z,6.50
2023-12-12T18:04:33.052Z,6.50
2023-12-12T18:07:00.318Z,6.50
2023-12-12T18:09:30.534Z,6.40
2023-12-12T18:11:58.124Z,6.40
2023-12-12T18:14:25.894Z,6.40
2023-12-12T18:16:53.222Z,6.40
2023-12-12T18:19:23.235Z,6.40
2023-12-12T18:21:51.200Z,6.30
2023-12-12T18:24:19.328Z,6.30
2023-12-12T18:26:46.491Z,6.30
2023-12-12T18:29:14.697Z,6.30
2023-12-12T18:31:41.929Z,6.20
2023-12-12T18:34:09.273Z,6.20
2023-12-12T18:36:37.781Z,6.20
2023-12-12T18:39:07.125Z,6.10
2023-12-12T18:41:35.902Z,6.10
2023-12-12T18:44:03.288Z,6.10
2023-12-12T18:46:31.167Z,6.10
2023-12-12T18:48:58.801Z,6.10
2023-12-12T18:51:26.220Z,6.00
2023-12-12T18:53:53.533Z,6.00
2023-12-12T18:56:21.702Z,6.00
2023-12-12T18:58:52.521Z,6.00
2023-12-12T19:01:26.689Z,5.90
2023-12-12T19:03:55.510Z,5.90
2023-12-12T19:06:25.126Z,5.90
2023-12-12T19:08:53.405Z,5.80
2023-12-12T19:11:23.853Z,5.80
2023-12-12T19:13:54.057Z,5.80
2023-12-12T19:16:23.516Z,5.70
2023-12-12T19:18:52.356Z,5.70
2023-12-12T19:21:21.329Z,5.70
2023-12-12T19:23:50.159Z,5.70
2023-12-12T19:26:19.878Z,5.70
2023-12-12T19:28:48.717Z,5.60
2023-12-12T19:31:17.594Z,5.60
2023-12-12T19:33:46.652Z,5.60
2023-12-12T19:36:16.077Z,5.60
2023-12-12T19:38:44.576Z,5.60
2023-12-12T19:41:13.614Z,5.60
2023-12-12T19:43:44.018Z,5.60
2023-12-12T19:46:13.153Z,5.60
2023-12-12T19:48:42.223Z,5.50
2023-12-12T19:51:11.334Z,5.50
2023-12-12T19:53:41.683Z,5.50
2023-12-12T19:56:12.421Z,5.50
2023-12-12T19:58:41.366Z,5.50
2023-12-12T20:01:10.506Z,5.50
2023-12-12T20:03:42.426Z,5.50
2023-12-12T20:06:12.586Z,5.50
2023-12-12T20:08:41.787Z,5.50
2023-12-12T20:11:10.933Z,5.50
2023-12-12T20:13:39.816Z,5.50
2023-12-12T20:16:19.134Z,5.50
2023-12-12T20:18:48.816Z,5.50
2023-12-12T20:21:25.944Z,5.50
2023-12-12T20:23:54.798Z,5.50
2023-12-12T20:26:23.794Z,5.50
2023-12-12T20:28:53.071Z,5.50
2023-12-12T20:31:22.436Z,5.50
2023-12-12T20:33:51.629Z,5.60
2023-12-12T20:36:21.048Z,5.60
2023-12-12T20:38:50.320Z,5.70
2023-12-12T20:41:21.299Z,5.70
2023-12-12T20:43:55.111Z,5.70
2023-12-12T20:46:24.119Z,5.70
2023-12-12T20:48:53.712Z,5.70
2023-12-12T20:51:22.824Z,5.70
2023-12-12T20:53:51.575Z,5.70
2023-12-12T20:56:20.616Z,5.70
2023-12-12T20:58:49.664Z,5.70
2023-12-12T21:01:17.101Z,5.70
2023-12-12T21:03:44.188Z,5.70
2023-12-12T21:06:11.338Z,5.80
2023-12-12T21:08:38.385Z,5.70
2023-12-12T21:11:13.466Z,5.70
2023-12-12T21:13:41.121Z,5.70
2023-12-12T21:16:20.928Z,5.70
2023-12-12T21:18:48.362Z,5.70
2023-12-12T21:21:15.518Z,5.70
2023-12-12T21:23:42.687Z,5.70
2023-12-12T21:26:09.783Z,5.70
2023-12-12T21:28:37.168Z,5.60
2023-12-12T21:31:06.952Z,5.70
2023-12-12T21:33:34.330Z,5.70
2023-12-12T21:36:01.542Z,5.70
2023-12-12T21:38:29.539Z,5.70
2023-12-12T21:40:56.962Z,5.70
2023-12-12T21:43:24.220Z,5.80
2023-12-12T21:45:52.386Z,5.80
2023-12-12T21:48:19.717Z,5.80
2023-12-12T21:50:46.832Z,5.90
2023-12-12T21:53:13.923Z,5.90
2023-12-12T21:55:41.272Z,5.90
2023-12-12T21:58:09.942Z,6.00
2023-12-12T22:00:37.236Z,5.90
2023-12-12T22:03:04.478Z,5.90
2023-12-12T22:05:31.687Z,5.90
2023-12-12T22:07:58.823Z,6.00
2023-12-12T22:10:27.179Z,5.90
2023-12-12T22:12:54.411Z,5.90
2023-12-12T22:15:21.490Z,5.90
2023-12-12T22:17:48.712Z,5.90
2023-12-12T22:20:16.005Z,6.00
2023-12-12T22:22:44.428Z,6.00
2023-12-12T22:25:11.588Z,6.00
2023-12-12T22:27:38.649Z,6.10
2023-12-12T22:30:07.488Z,6.10
2023-12-12T22:32:34.602Z,6.10
2023-12-12T22:35:01.805Z,6.10
2023-12-12T22:37:29.099Z,6.10
2023-12-12T22:39:56.220Z,6.10
2023-12-12T22:42:23.367Z,6.10
2023-12-12T22:44:50.407Z,6.10
2023-12-12T22:47:17.493Z,6.10
2023-12-12T22:49:44.635Z,6.10
2023-12-12T22:52:11.693Z,6.20
2023-12-12T22:54:38.835Z,6.20
2023-12-12T22:57:06.776Z,6.20
2023-12-12T22:59:35.202Z,6.20
2023-12-12T23:02:05.213Z,6.20
2023-12-12T23:04:37.455Z,6.10
2023-12-12T23:07:06.557Z,6.20
2023-12-12T23:09:33.689Z,6.20
2023-12-12T23:12:01.090Z,6.20
2023-12-12T23:14:28.452Z,6.20
2023-12-12T23:16:55.502Z,6.20
2023-12-12T23:19:23.281Z,6.20
2023-12-12T23:21:50.410Z,6.20
2023-12-12T23:24:18.295Z,6.20
2023-12-12T23:26:46.119Z,6.20
2023-12-12T23:29:13.197Z,6.30
2023-12-12T23:31:41.044Z,6.30
2023-12-12T23:34:08.372Z,6.30
2023-12-12T23:36:42.817Z,6.30
2023-12-12T23:39:10.159Z,6.30
2023-12-12T23:41:46.385Z,6.20
2023-12-12T23:44:17.621Z,6.20
2023-12-12T23:46:45.398Z,6.20
2023-12-12T23:49:16.405Z,6.20
2023-12-12T23:51:43.651Z,6.20
2023-12-12T23:54:10.788Z,6.10
2023-12-12T23:56:37.999Z,6.10
2023-12-12T23:59:05.106Z,6.10
